createdAt,value
2019-05-02T00:01:39.806Z,69.08
2019-05-02T00:04:06.987Z,68.77
2019-05-02T00:06:37.973Z,69.12
2019-05-02T00:09:09.169Z,69.08
2019-05-02T00:11:36.350Z,69.44
2019-05-02T00:14:05.459Z,70.07
2019-05-02T00:16:32.766Z,70.39
2019-05-02T00:18:59.920Z,70.72
2019-05-02T00:21:27.737Z,70.81
2019-05-02T00:23:59.183Z,70.43
2019-05-02T00:26:24.841Z,69.89
2019-05-02T00:28:52.917Z,69.55
2019-05-02T00:31:20.927Z,69.83
2019-05-02T00:33:48.152Z,70.49
2019-05-02T00:36:15.362Z,70.96
2019-05-02T00:38:42.551Z,70.09
2019-05-02T00:41:09.696Z,69.98
2019-05-02T00:43:36.915Z,70.54
2019-05-02T00:46:04.117Z,70.17
2019-05-02T00:48:46.222Z,70.30
2019-05-02T00:51:13.534Z,70.55
2019-05-02T00:53:44.456Z,70.95
2019-05-02T00:56:10.381Z,71.33
2019-05-02T00:58:37.691Z,71.83
2019-05-02T01:01:33.037Z,71.72
2019-05-02T01:04:04.533Z,71.44
2019-05-02T01:06:31.723Z,71.08
2019-05-02T01:08:58.878Z,70.97
2019-05-02T01:11:28.371Z,70.99
2019-05-02T01:13:55.663Z,70.24
2019-05-02T01:16:24.340Z,70.16
2019-05-02T01:18:51.558Z,70.25
2019-05-02T01:21:18.745Z,70.59
2019-05-02T01:23:45.933Z,70.80
2019-05-02T01:26:13.045Z,70.68
2019-05-02T01:28:55.742Z,70.27
2019-05-02T01:31:37.632Z,69.58
2019-05-02T01:34:17.881Z,69.44
2019-05-02T01:36:52.711Z,68.84
2019-05-02T01:39:19.881Z,68.87
2019-05-02T01:41:46.939Z,68.79
2019-05-02T01:44:14.159Z,68.51
2019-05-02T01:46:41.330Z,68.33
2019-05-02T01:49:09.346Z,68.05
2019-05-02T01:51:37.097Z,68.10
2019-05-02T01:54:10.049Z,68.07
2019-05-02T01:56:35.067Z,68.17
2019-05-02T01:59:02.395Z,68.59
2019-05-02T02:01:29.478Z,68.83
2019-05-02T02:03:56.693Z,69.40
2019-05-02T02:06:23.925Z,69.82
2019-05-02T02:08:51.155Z,70.43
2019-05-02T02:11:18.662Z,70.85
2019-05-02T02:13:45.859Z,70.75
2019-05-02T02:16:13.369Z,70.91
2019-05-02T02:18:50.166Z,70.91
2019-05-02T02:21:36.977Z,71.42
2019-05-02T02:24:08.224Z,71.75
2019-05-02T02:26:35.447Z,72.22
2019-05-02T02:29:03.123Z,72.50
2019-05-02T02:31:31.662Z,72.82
2019-05-02T02:33:58.762Z,72.67
2019-05-02T02:36:31.799Z,71.89
2019-05-02T02:38:55.223Z,71.63
2019-05-02T02:41:22.380Z,71.25
2019-05-02T02:44:12.199Z,70.95
2019-05-02T02:46:41.788Z,70.77
2019-05-02T02:49:14.222Z,70.74
2019-05-02T02:51:38.171Z,70.69
2019-05-02T02:54:05.766Z,70.11
2019-05-02T02:56:34.386Z,69.88
2019-05-02T02:59:02.298Z,69.95
2019-05-02T03:01:31.320Z,69.83
2019-05-02T03:04:01.937Z,69.82
2019-05-02T03:06:27.684Z,68.82
2019-05-02T03:08:54.964Z,68.73
2019-05-02T03:11:25.511Z,68.58
2019-05-02T03:14:06.675Z,68.90
2019-05-02T03:16:30.262Z,69.37
2019-05-02T03:18:57.430Z,69.92
2019-05-02T03:21:24.694Z,70.66
2019-05-02T03:24:02.265Z,70.60
2019-05-02T03:26:20.888Z,70.68
2019-05-02T03:28:57.291Z,71.39
2019-05-02T03:31:29.830Z,71.72
2019-05-02T03:33:55.115Z,71.72
2019-05-02T03:36:27.999Z,71.87
2019-05-02T03:38:44.971Z,71.99
2019-05-02T03:41:13.649Z,72.61
2019-05-02T03:43:42.097Z,73.03
2019-05-02T03:46:13.454Z,73.16
2019-05-02T03:48:38.343Z,73.40
2019-05-02T03:51:19.669Z,73.78
2019-05-02T03:53:36.424Z,74.12
2019-05-02T03:56:10.570Z,74.12
2019-05-02T03:58:32.816Z,73.60
2019-05-02T04:01:01.625Z,73.88
2019-05-02T04:03:34.139Z,74.01
2019-05-02T04:05:58.762Z,74.21
2019-05-02T04:08:26.327Z,74.61
2019-05-02T04:11:23.467Z,74.77
2019-05-02T04:13:52.209Z,74.87
2019-05-02T04:16:19.611Z,75.01
2019-05-02T04:18:54.626Z,74.89
2019-05-02T04:21:22.178Z,74.69
2019-05-02T04:23:45.826Z,74.27
2019-05-02T04:26:15.429Z,73.90
2019-05-02T04:28:45.685Z,73.67
2019-05-02T04:31:12.497Z,73.54
2019-05-02T04:33:39.807Z,73.28
2019-05-02T04:36:14.151Z,72.90
2019-05-02T04:38:44.269Z,72.43
2019-05-02T04:41:05.240Z,72.10
2019-05-02T04:43:32.401Z,71.77
2019-05-02T04:46:00.318Z,71.28
2019-05-02T04:48:28.487Z,70.62
2019-05-02T04:51:02.010Z,69.76
2019-05-02T04:53:25.809Z,68.78
2019-05-02T04:56:01.734Z,67.65
2019-05-02T04:58:27.503Z,65.77
2019-05-02T05:00:58.109Z,62.05
2019-05-02T05:03:21.363Z,58.96
2019-05-02T05:05:48.425Z,56.84
2019-05-02T05:08:17.556Z,56.43
2019-05-02T05:10:45.159Z,56.88
2019-05-02T05:13:19.437Z,57.74
2019-05-02T05:15:48.918Z,58.76
2019-05-02T05:18:14.482Z,59.25
2019-05-02T05:20:40.538Z,58.71
2019-05-02T05:23:08.309Z,54.93
2019-05-02T05:25:40.852Z,49.91
2019-05-02T05:28:09.076Z,46.07
2019-05-02T05:30:44.707Z,42.87
2019-05-02T05:33:09.913Z,40.03
2019-05-02T05:35:35.337Z,37.33
2019-05-02T05:38:02.516Z,34.88
2019-05-02T05:40:32.083Z,32.77
2019-05-02T05:43:02.115Z,31.54
2019-05-02T05:45:29.111Z,30.62
2019-05-02T05:48:00.958Z,29.23
2019-05-02T05:50:27.566Z,28.45
2019-05-02T05:52:55.048Z,27.54
2019-05-02T05:55:24.317Z,26.36
2019-05-02T05:57:59.537Z,26.38
2019-05-02T06:00:23.132Z,26.16
2019-05-02T06:02:56.099Z,25.85
2019-05-02T06:05:19.909Z,25.21
2019-05-02T06:07:47.472Z,24.28
2019-05-02T06:10:14.809Z,23.57
2019-05-02T06:12:41.989Z,23.00
2019-05-02T06:15:09.529Z,22.97
2019-05-02T06:17:36.758Z,22.89
2019-05-02T06:20:04.494Z,22.56
2019-05-02T06:22:31.989Z,22.30
2019-05-02T06:25:08.418Z,22.07
2019-05-02T06:27:33.439Z,21.67
2019-05-02T06:30:00.983Z,21.52
2019-05-02T06:32:28.292Z,21.18
2019-05-02T06:34:55.516Z,21.01
2019-05-02T06:37:22.712Z,20.80
2019-05-02T06:39:49.975Z,19.99
2019-05-02T06:42:17.151Z,19.67
2019-05-02T06:44:44.543Z,19.89
2019-05-02T06:47:11.743Z,18.68
2019-05-02T06:49:38.820Z,18.51
2019-05-02T06:52:06.011Z,18.07
2019-05-02T06:54:33.253Z,17.62
2019-05-02T06:57:00.438Z,16.77
2019-05-02T06:59:27.657Z,16.38
2019-05-02T07:01:57.450Z,16.64
2019-05-02T07:04:25.071Z,16.33
2019-05-02T07:06:58.866Z,16.16
2019-05-02T07:09:21.768Z,16.00
2019-05-02T07:11:57.003Z,15.61
2019-05-02T07:14:23.264Z,16.25
2019-05-02T07:17:05.701Z,15.95
2019-05-02T07:19:37.996Z,15.09
2019-05-02T07:22:05.235Z,14.42
2019-05-02T07:24:32.733Z,13.93
2019-05-02T07:27:02.297Z,13.81
2019-05-02T07:29:29.134Z,13.74
2019-05-02T07:31:56.317Z,13.76
2019-05-02T07:34:23.795Z,13.39
2019-05-02T07:36:50.891Z,12.83
2019-05-02T07:39:18.088Z,12.66
2019-05-02T07:41:45.203Z,12.62
2019-05-02T07:44:12.577Z,12.22
2019-05-02T07:46:51.159Z,11.96
2019-05-02T07:49:08.875Z,11.71
2019-05-02T07:51:36.110Z,11.71
2019-05-02T07:54:03.392Z,10.76
2019-05-02T07:56:30.847Z,10.41
2019-05-02T07:58:58.100Z,10.27
2019-05-02T08:01:25.565Z,10.23
2019-05-02T08:03:52.739Z,10.03
2019-05-02T08:06:20.010Z,9.84
2019-05-02T08:08:47.226Z,10.14
2019-05-02T08:11:14.415Z,10.05
2019-05-02T08:13:41.597Z,9.58
2019-05-02T08:16:08.803Z,9.52
2019-05-02T08:18:36.285Z,8.97
2019-05-02T08:21:03.758Z,8.94
2019-05-02T08:23:30.804Z,9.04
2019-05-02T08:25:58.291Z,8.67
2019-05-02T08:28:34.525Z,8.84
2019-05-02T08:31:01.697Z,9.19
2019-05-02T08:33:34.386Z,9.02
2019-05-02T08:35:57.979Z,9.13
2019-05-02T08:38:25.159Z,8.79
2019-05-02T08:40:52.349Z,8.68
2019-05-02T08:43:19.737Z,8.46
2019-05-02T08:45:46.912Z,8.52
2019-05-02T08:48:13.958Z,8.59
2019-05-02T08:50:41.045Z,8.58
2019-05-02T08:53:08.213Z,8.22
2019-05-02T08:55:35.517Z,8.10
2019-05-02T08:58:06.584Z,8.31
2019-05-02T09:00:37.327Z,8.21
2019-05-02T09:03:02.622Z,8.26
2019-05-02T09:05:30.320Z,8.70
2019-05-02T09:07:57.494Z,8.94
2019-05-02T09:10:24.604Z,8.95
2019-05-02T09:12:52.220Z,9.16
2019-05-02T09:15:19.350Z,9.20
2019-05-02T09:17:53.076Z,9.12
2019-05-02T09:20:20.368Z,9.10
2019-05-02T09:22:46.629Z,9.80
2019-05-02T09:25:14.598Z,10.09
2019-05-02T09:27:42.077Z,9.91
2019-05-02T09:30:11.906Z,10.08
2019-05-02T09:32:38.919Z,10.45
2019-05-02T09:35:06.414Z,11.03
2019-05-02T09:37:33.578Z,11.18
2019-05-02T09:40:02.203Z,11.64
2019-05-02T09:42:29.611Z,11.47
2019-05-02T09:44:57.120Z,12.11
2019-05-02T09:47:27.263Z,12.84
2019-05-02T09:50:29.679Z,14.14
2019-05-02T09:52:52.484Z,14.29
2019-05-02T09:55:19.911Z,15.57
2019-05-02T09:57:48.226Z,17.19
2019-05-02T10:00:36.365Z,19.01
2019-05-02T10:03:03.582Z,21.05
2019-05-02T10:05:32.192Z,21.78
2019-05-02T10:08:03.163Z,23.00
2019-05-02T10:10:29.325Z,23.68
2019-05-02T10:12:56.501Z,24.77
2019-05-02T10:15:23.691Z,26.30
2019-05-02T10:17:51.940Z,27.29
2019-05-02T10:20:23.487Z,28.01
2019-05-02T10:22:48.711Z,28.32
2019-05-02T10:25:15.903Z,28.61
2019-05-02T10:27:47.526Z,28.74
2019-05-02T10:30:15.872Z,28.97
2019-05-02T10:32:47.191Z,28.94
2019-05-02T10:35:16.041Z,28.82
2019-05-02T10:37:43.275Z,28.81
2019-05-02T10:40:15.456Z,29.15
2019-05-02T10:42:41.921Z,29.26
2019-05-02T10:45:12.982Z,29.37
2019-05-02T10:47:39.763Z,28.76
2019-05-02T10:50:17.346Z,28.76
2019-05-02T10:52:45.123Z,29.37
2019-05-02T10:55:12.925Z,29.06
2019-05-02T10:57:42.016Z,29.16
2019-05-02T11:00:12.781Z,28.62
2019-05-02T11:02:52.476Z,28.43
2019-05-02T11:05:22.511Z,28.74
2019-05-02T11:07:52.166Z,28.33
2019-05-02T11:10:19.009Z,28.09
2019-05-02T11:13:09.098Z,27.87
2019-05-02T11:16:05.233Z,28.51
2019-05-02T11:18:47.975Z,27.85
2019-05-02T11:21:15.147Z,28.88
2019-05-02T11:23:42.392Z,28.34
2019-05-02T11:26:14.490Z,28.44
2019-05-02T11:28:39.076Z,29.23
2019-05-02T11:31:07.534Z,29.41
2019-05-02T11:33:35.366Z,29.15
2019-05-02T11:36:02.666Z,28.47
2019-05-02T11:38:30.457Z,28.88
2019-05-02T11:40:57.881Z,28.69
2019-05-02T11:43:25.104Z,28.68
2019-05-02T11:45:55.797Z,27.96
2019-05-02T11:48:22.626Z,28.56
2019-05-02T11:50:52.105Z,28.77
2019-05-02T11:53:29.388Z,29.00
2019-05-02T11:55:48.107Z,27.83
2019-05-02T11:58:15.309Z,27.24
2019-05-02T12:00:48.041Z,27.16
2019-05-02T12:03:36.839Z,26.77
2019-05-02T12:06:06.692Z,27.89
2019-05-02T12:08:33.252Z,27.89
2019-05-02T12:11:01.970Z,27.73
2019-05-02T12:13:29.868Z,27.98
2019-05-02T12:15:57.110Z,27.93
2019-05-02T12:18:24.335Z,27.90
2019-05-02T12:20:52.158Z,28.31
2019-05-02T12:23:19.440Z,27.16
2019-05-02T12:25:46.660Z,26.90
2019-05-02T12:28:13.968Z,26.96
2019-05-02T12:30:41.852Z,27.24
2019-05-02T12:33:09.538Z,27.63
2019-05-02T12:35:36.976Z,28.44
2019-05-02T12:38:04.271Z,28.25
2019-05-02T12:40:32.568Z,27.58
2019-05-02T12:42:59.821Z,27.48
2019-05-02T12:45:27.354Z,26.46
2019-05-02T12:47:54.470Z,25.91
2019-05-02T12:50:22.580Z,26.12
2019-05-02T12:52:52.054Z,26.55
2019-05-02T12:55:19.484Z,26.52
2019-05-02T12:57:46.692Z,26.47
2019-05-02T13:00:14.999Z,26.52
2019-05-02T13:02:47.663Z,27.13
2019-05-02T13:05:14.717Z,27.07
2019-05-02T13:07:42.790Z,27.17
2019-05-02T13:10:13.241Z,27.12
2019-05-02T13:12:41.923Z,27.55
2019-05-02T13:15:09.326Z,27.42
2019-05-02T13:17:43.871Z,27.90
2019-05-02T13:20:08.604Z,27.56
2019-05-02T13:22:45.819Z,27.86
2019-05-02T13:25:15.223Z,27.66
2019-05-02T13:27:47.085Z,27.30
2019-05-02T13:30:22.975Z,26.78
2019-05-02T13:32:57.597Z,26.57
2019-05-02T13:35:34.236Z,26.31
2019-05-02T13:38:03.411Z,26.20
2019-05-02T13:40:41.653Z,26.05
2019-05-02T13:43:08.999Z,26.70
2019-05-02T13:45:55.035Z,26.84
2019-05-02T13:48:22.464Z,26.80
2019-05-02T13:50:49.535Z,26.68
2019-05-02T13:53:16.764Z,26.75
2019-05-02T13:55:50.024Z,26.80
2019-05-02T13:58:21.637Z,27.16
2019-05-02T14:00:47.776Z,28.09
2019-05-02T14:03:15.061Z,28.05
2019-05-02T14:05:50.715Z,28.94
2019-05-02T14:08:37.118Z,29.34
2019-05-02T14:11:22.443Z,29.03
2019-05-02T14:13:49.811Z,29.14
2019-05-02T14:16:17.304Z,28.99
2019-05-02T14:18:44.480Z,29.24
2019-05-02T14:21:12.631Z,29.60
2019-05-02T14:23:41.897Z,29.54
2019-05-02T14:26:09.195Z,28.93
2019-05-02T14:28:36.535Z,29.26
2019-05-02T14:31:04.076Z,29.41
2019-05-02T14:33:33.174Z,28.72
2019-05-02T14:36:01.792Z,29.52
2019-05-02T14:38:29.220Z,29.75
2019-05-02T14:41:16.067Z,29.79
2019-05-02T14:44:09.041Z,29.93
2019-05-02T14:46:39.371Z,30.13
2019-05-02T14:49:05.354Z,30.16
2019-05-02T14:51:34.822Z,29.67
2019-05-02T14:54:07.956Z,29.70
2019-05-02T14:56:45.919Z,29.20
2019-05-02T14:59:09.260Z,30.00
2019-05-02T15:01:35.922Z,30.12
2019-05-02T15:04:08.109Z,30.33
2019-05-02T15:06:33.691Z,30.93
2019-05-02T15:09:02.399Z,31.23
2019-05-02T15:11:32.730Z,31.54
2019-05-02T15:13:59.709Z,31.61
2019-05-02T15:16:39.683Z,31.27
2019-05-02T15:18:57.154Z,31.36
2019-05-02T15:21:27.412Z,31.19
2019-05-02T15:23:57.880Z,31.33
2019-05-02T15:26:26.470Z,31.48
2019-05-02T15:28:53.172Z,31.67
2019-05-02T15:31:31.659Z,32.00
2019-05-02T15:34:14.024Z,31.81
2019-05-02T15:36:42.263Z,32.11
2019-05-02T15:41:44.745Z,32.40
2019-05-02T15:44:09.728Z,32.33
2019-05-02T15:46:36.960Z,32.52
2019-05-02T15:49:05.845Z,32.86
2019-05-02T15:51:33.199Z,32.64
2019-05-02T15:54:08.126Z,32.80
2019-05-02T15:56:32.439Z,33.05
2019-05-02T15:59:03.403Z,32.92
2019-05-02T16:01:53.234Z,32.99
2019-05-02T16:04:25.627Z,33.45
2019-05-02T16:06:52.877Z,33.03
2019-05-02T16:09:21.629Z,32.94
2019-05-02T16:11:53.158Z,33.45
2019-05-02T16:14:18.427Z,33.11
2019-05-02T16:16:45.690Z,33.16
2019-05-02T16:19:14.701Z,33.06
2019-05-02T16:24:32.095Z,33.43
2019-05-02T16:27:11.678Z,33.66
2019-05-02T16:30:07.558Z,33.71
2019-05-02T16:35:41.988Z,34.59
2019-05-02T16:41:24.989Z,34.99
2019-05-02T16:44:32.995Z,35.11
2019-05-02T16:47:14.002Z,34.97
2019-05-02T16:53:17.260Z,34.99
2019-05-02T16:58:58.175Z,34.56
2019-05-02T17:04:33.648Z,34.27
2019-05-02T17:10:22.976Z,34.82
2019-05-02T17:12:55.611Z,34.65
2019-05-02T17:15:45.058Z,33.97
2019-05-02T17:18:14.641Z,33.76
2019-05-02T17:20:53.579Z,33.65
2019-05-02T17:23:26.047Z,33.49
2019-05-02T17:29:41.513Z,31.13
2019-05-02T17:32:11.476Z,31.45
2019-05-02T17:34:45.188Z,31.34
2019-05-02T17:37:32.539Z,30.70
2019-05-02T17:43:22.702Z,31.70
2019-05-02T17:45:57.425Z,32.17
2019-05-02T17:48:26.429Z,32.21
2019-05-02T17:51:13.084Z,32.15
2019-05-02T17:54:22.811Z,31.53
2019-05-02T18:00:47.378Z,31.30
2019-05-02T18:03:24.279Z,31.17
2019-05-02T18:05:56.635Z,31.75
2019-05-02T18:08:23.733Z,30.95
2019-05-02T18:11:36.487Z,30.93
2019-05-02T18:17:29.170Z,31.07
2019-05-02T18:20:47.545Z,31.66
2019-05-02T18:23:34.250Z,31.62
2019-05-02T18:26:04.494Z,32.07
2019-05-02T18:28:47.032Z,31.97
2019-05-02T18:31:15.114Z,31.80
2019-05-02T18:36:43.893Z,32.31
2019-05-02T18:39:12.883Z,32.75
2019-05-02T18:41:51.907Z,33.00
2019-05-02T18:44:28.904Z,33.37
2019-05-02T18:46:57.758Z,33.77
2019-05-02T18:49:45.035Z,33.73
2019-05-02T18:52:12.243Z,33.85
2019-05-02T18:54:43.988Z,33.98
2019-05-02T18:57:24.402Z,34.28
2019-05-02T18:59:59.395Z,34.63
2019-05-02T19:02:34.082Z,35.06
2019-05-02T19:14:52.807Z,36.58
2019-05-02T19:17:21.831Z,37.04
2019-05-02T19:20:36.850Z,37.48
2019-05-02T19:23:04.079Z,37.45
2019-05-02T19:26:15.016Z,38.26
2019-05-02T19:29:08.517Z,38.43
2019-05-02T19:31:52.809Z,38.95
2019-05-02T19:34:22.770Z,40.21
2019-05-02T19:37:50.451Z,43.73
2019-05-02T19:43:40.254Z,48.08
2019-05-02T19:46:53.944Z,49.26
2019-05-02T19:49:22.109Z,50.25
2019-05-02T19:52:10.229Z,51.19
2019-05-02T19:54:39.947Z,51.79
2019-05-02T19:57:26.898Z,51.98
2019-05-02T19:59:57.124Z,52.52
2019-05-02T20:02:43.815Z,52.49
2019-05-02T20:05:25.523Z,52.83
2019-05-02T20:08:42.189Z,52.89
2019-05-02T20:11:32.911Z,51.87
2019-05-02T20:14:18.136Z,52.44
2019-05-02T20:22:48.434Z,53.69
2019-05-02T20:25:56.611Z,53.95
2019-05-02T20:28:24.085Z,54.49
2019-05-02T20:30:52.668Z,54.28
2019-05-02T20:33:27.362Z,54.29
2019-05-02T20:39:09.077Z,54.95
2019-05-02T20:41:38.108Z,55.95
2019-05-02T20:44:17.715Z,56.42
2019-05-02T20:46:45.008Z,57.07
2019-05-02T20:49:12.803Z,57.67
2019-05-02T20:52:02.463Z,57.40
2019-05-02T20:54:36.582Z,57.94
2019-05-02T21:00:32.187Z,58.17
2019-05-02T21:03:25.544Z,58.67
2019-05-02T21:06:12.509Z,58.48
2019-05-02T21:14:56.084Z,58.64
2019-05-02T21:17:23.334Z,58.98
2019-05-02T21:22:53.009Z,58.89
2019-05-02T21:25:41.778Z,59.05
2019-05-02T21:28:32.915Z,58.69
2019-05-02T21:34:33.670Z,58.82
2019-05-02T21:37:02.504Z,59.02
2019-05-02T21:39:36.278Z,59.24
2019-05-02T21:42:10.478Z,59.46
2019-05-02T21:44:37.815Z,59.73
2019-05-02T21:47:05.823Z,59.89
2019-05-02T21:52:46.605Z,59.95
2019-05-02T22:07:57.846Z,60.57
2019-05-02T22:10:25.090Z,60.77
2019-05-02T22:13:04.423Z,60.86
2019-05-02T22:15:32.479Z,61.01
2019-05-02T22:20:47.134Z,61.31
2019-05-02T22:26:15.409Z,61.66
2019-05-02T22:28:42.487Z,61.56
2019-05-02T22:31:12.162Z,61.63
2019-05-02T22:33:59.007Z,61.57
2019-05-02T22:36:26.246Z,60.12
2019-05-02T22:39:36.063Z,60.15
2019-05-02T22:48:17.897Z,58.51
2019-05-02T22:53:46.558Z,59.14
2019-05-02T22:56:25.809Z,58.51
2019-05-02T23:01:54.224Z,57.86
2019-05-02T23:04:23.311Z,58.09
2019-05-02T23:06:56.503Z,57.90
2019-05-02T23:09:23.696Z,58.00
2019-05-02T23:11:53.067Z,58.37
2019-05-02T23:15:01.999Z,58.67
2019-05-02T23:17:52.170Z,58.54
2019-05-02T23:21:21.753Z,58.49
2019-05-02T23:27:11.678Z,57.81
2019-05-02T23:29:46.415Z,58.07
2019-05-02T23:35:18.749Z,60.02
2019-05-02T23:37:45.966Z,60.70
2019-05-02T23:43:14.628Z,61.74
2019-05-02T23:45:42.303Z,61.96
2019-05-02T23:49:02.174Z,62.28
2019-05-02T23:51:42.619Z,62.60
2019-05-02T23:54:16.202Z,62.88
2019-05-02T23:56:43.423Z,63.04
2019-05-02T23:59:12.457Z,63.20
